createdAt,value
2022-10-20T05:17:35.797Z,4.70
2022-10-20T05:20:02.637Z,4.70
2022-10-20T05:22:31.336Z,4.70
2022-10-20T05:25:03.993Z,4.70
2022-10-20T05:27:39.828Z,4.70
2022-10-20T05:30:07.123Z,4.80
2022-10-20T05:32:34.316Z,4.80
2022-10-20T05:35:01.237Z,4.80
2022-10-20T05:37:28.044Z,5.00
2022-10-20T05:39:54.847Z,5.20
2022-10-20T05:42:21.606Z,5.40
2022-10-20T05:44:48.457Z,5.60
2022-10-20T05:47:15.180Z,5.80
2022-10-20T05:49:41.928Z,6.10
2022-10-20T05:52:08.671Z,6.30
2022-10-20T05:54:35.405Z,6.40
2022-10-20T05:57:02.169Z,6.70
2022-10-20T05:59:28.898Z,7.00
2022-10-20T06:01:55.701Z,7.40
2022-10-20T06:04:23.806Z,7.80
2022-10-20T06:06:51.780Z,8.00
2022-10-20T06:09:18.677Z,8.40
2022-10-20T06:11:45.502Z,8.70
2022-10-20T06:14:12.327Z,9.00
2022-10-20T06:16:39.154Z,9.30
2022-10-20T06:19:07.201Z,9.60
2022-10-20T06:21:34.319Z,9.90
2022-10-20T06:24:01.679Z,10.40
2022-10-20T06:26:36.405Z,10.70
2022-10-20T06:29:04.971Z,11.00
2022-10-20T06:31:33.381Z,11.40
2022-10-20T06:34:00.581Z,11.70
2022-10-20T06:36:27.545Z,12.00
2022-10-20T06:38:58.350Z,12.20
2022-10-20T06:41:25.910Z,12.30
2022-10-20T06:43:59.468Z,12.60
2022-10-20T06:46:33.961Z,13.00
2022-10-20T06:49:01.405Z,13.20
2022-10-20T06:51:28.227Z,13.40
2022-10-20T06:53:55.017Z,13.80
2022-10-20T06:56:25.705Z,14.10
2022-10-20T06:58:53.357Z,14.40
2022-10-20T07:01:23.360Z,14.60
2022-10-20T07:03:50.688Z,14.80
2022-10-20T07:06:19.530Z,15.10
2022-10-20T07:08:46.489Z,15.40
2022-10-20T07:11:17.876Z,15.60
2022-10-20T07:13:44.732Z,15.70
2022-10-20T07:16:13.109Z,15.70
2022-10-20T07:18:40.103Z,15.70
2022-10-20T07:21:11.199Z,15.80
2022-10-20T07:23:38.151Z,15.80
2022-10-20T07:26:11.245Z,15.90
2022-10-20T07:28:37.924Z,16.00
2022-10-20T07:31:05.692Z,15.90
2022-10-20T07:33:32.531Z,15.90
2022-10-20T07:35:59.286Z,16.00
2022-10-20T07:38:26.089Z,15.80
2022-10-20T07:40:52.838Z,15.50
2022-10-20T07:43:19.681Z,15.40
2022-10-20T07:45:46.424Z,15.40
2022-10-20T07:48:13.134Z,15.40
2022-10-20T07:50:40.781Z,15.50
2022-10-20T07:53:07.631Z,15.30
2022-10-20T07:55:38.951Z,15.00
2022-10-20T07:58:06.087Z,14.70
2022-10-20T08:00:32.970Z,14.70
2022-10-20T08:02:59.764Z,14.50
2022-10-20T08:05:26.876Z,14.40
2022-10-20T08:07:53.603Z,14.50
2022-10-20T08:10:20.316Z,14.60
2022-10-20T08:12:47.054Z,14.50
2022-10-20T08:15:30.869Z,14.40
2022-10-20T08:18:00.397Z,14.30
2022-10-20T08:20:27.404Z,14.30
2022-10-20T08:22:54.167Z,14.30
2022-10-20T08:25:20.942Z,14.30
2022-10-20T08:27:47.697Z,14.10
2022-10-20T08:30:29.421Z,13.80
2022-10-20T08:32:56.325Z,13.50
2022-10-20T08:35:23.060Z,13.40
2022-10-20T08:37:49.947Z,13.30
2022-10-20T08:40:18.437Z,13.20
2022-10-20T08:42:45.303Z,13.10
2022-10-20T08:45:18.728Z,13.10
2022-10-20T08:47:45.537Z,13.10
2022-10-20T08:50:13.649Z,13.20
2022-10-20T08:52:41.406Z,13.20
2022-10-20T08:55:10.174Z,13.10
2022-10-20T08:57:37.042Z,13.10
2022-10-20T09:00:15.278Z,13.10
2022-10-20T09:02:42.056Z,13.10
2022-10-20T09:05:09.044Z,13.10
2022-10-20T09:07:37.252Z,13.10
2022-10-20T09:10:16.512Z,13.10
2022-10-20T09:12:44.630Z,13.10
2022-10-20T09:15:11.666Z,13.20
2022-10-20T09:17:40.258Z,13.10
2022-10-20T09:20:08.378Z,13.20
2022-10-20T09:22:36.256Z,13.20
2022-10-20T09:25:03.557Z,13.20
2022-10-20T09:27:36.055Z,13.10
2022-10-20T09:30:17.867Z,13.20
2022-10-20T09:32:47.370Z,13.30
2022-10-20T09:35:32.003Z,13.30
2022-10-20T09:38:18.048Z,13.30
2022-10-20T09:40:46.340Z,13.50
2022-10-20T09:43:16.791Z,13.60
2022-10-20T09:45:54.173Z,13.70
2022-10-20T09:48:23.709Z,13.70
2022-10-20T09:50:52.383Z,13.70
2022-10-20T09:53:21.552Z,13.60
2022-10-20T09:55:49.387Z,13.60
2022-10-20T09:58:38.057Z,13.70
2022-10-20T10:01:11.680Z,13.80
2022-10-20T10:03:44.971Z,13.80
2022-10-20T10:06:20.524Z,13.90
2022-10-20T10:08:47.452Z,13.90
2022-10-20T10:11:18.951Z,13.90
2022-10-20T10:13:47.164Z,13.90
2022-10-20T10:16:15.375Z,13.90
2022-10-20T10:18:48.294Z,13.90
2022-10-20T10:21:17.470Z,13.90
2022-10-20T10:23:55.409Z,13.80
2022-10-20T10:26:37.443Z,13.70
2022-10-20T10:29:04.302Z,13.60
2022-10-20T10:31:32.433Z,13.60
2022-10-20T10:34:19.406Z,13.50
2022-10-20T10:36:46.150Z,13.50
2022-10-20T10:39:14.408Z,13.60
2022-10-20T10:42:04.813Z,13.70
2022-10-20T10:45:03.870Z,13.70
2022-10-20T10:47:48.427Z,13.80
2022-10-20T10:50:24.079Z,13.80
2022-10-20T10:53:01.968Z,13.80
2022-10-20T10:55:51.320Z,13.80
2022-10-20T10:58:24.667Z,13.80
2022-10-20T11:01:19.091Z,13.90
2022-10-20T11:04:05.676Z,14.10
2022-10-20T11:06:44.983Z,14.20
2022-10-20T11:09:17.656Z,14.30
2022-10-20T11:11:54.745Z,14.40
2022-10-20T11:14:31.193Z,14.50
2022-10-20T11:17:05.134Z,14.40
2022-10-20T11:19:54.347Z,14.50
2022-10-20T11:22:56.223Z,14.50
2022-10-20T11:25:44.726Z,14.40
2022-10-20T11:28:23.573Z,14.50
2022-10-20T11:30:50.499Z,14.50
2022-10-20T11:33:18.983Z,14.60
2022-10-20T11:35:52.170Z,14.60
2022-10-20T11:38:21.160Z,14.70
2022-10-20T11:40:55.100Z,14.80
2022-10-20T11:43:37.432Z,15.00
2022-10-20T11:46:12.745Z,15.00
2022-10-20T11:48:47.777Z,15.00
2022-10-20T11:51:20.402Z,14.90
2022-10-20T11:54:31.824Z,14.90
2022-10-20T11:57:07.561Z,14.80
2022-10-20T12:00:12.613Z,14.70
2022-10-20T12:03:13.335Z,14.80
2022-10-20T12:05:45.994Z,14.80
2022-10-20T12:08:41.037Z,14.80
2022-10-20T12:11:38.769Z,14.70
2022-10-20T12:14:14.515Z,14.70
2022-10-20T12:16:53.758Z,14.70
2022-10-20T12:19:21.531Z,14.60
2022-10-20T12:22:27.105Z,14.50
2022-10-20T12:24:53.850Z,14.50
2022-10-20T12:27:30.119Z,14.40
2022-10-20T12:30:16.231Z,14.40
2022-10-20T12:33:09.809Z,14.30
2022-10-20T12:35:55.231Z,14.20
2022-10-20T12:38:21.945Z,14.10
2022-10-20T12:40:57.989Z,14.10
2022-10-20T12:43:27.171Z,14.00
2022-10-20T12:46:03.632Z,14.10
2022-10-20T12:48:30.717Z,14.10
2022-10-20T12:51:03.500Z,14.10
2022-10-20T12:53:30.276Z,14.10
2022-10-20T12:56:08.133Z,14.00
2022-10-20T12:58:36.378Z,14.10
2022-10-20T13:01:08.522Z,14.10
2022-10-20T13:03:36.271Z,14.10
2022-10-20T13:06:23.339Z,14.20
2022-10-20T13:09:10.279Z,14.20
2022-10-20T13:11:43.166Z,14.20
2022-10-20T13:14:13.099Z,14.20
2022-10-20T13:17:11.115Z,14.20
2022-10-20T13:19:42.637Z,14.20
2022-10-20T13:22:32.533Z,14.20
2022-10-20T13:24:59.512Z,14.20
2022-10-20T13:27:26.361Z,14.20
2022-10-20T13:29:53.159Z,14.20
2022-10-20T13:32:32.806Z,14.20
2022-10-20T13:35:18.275Z,14.20
2022-10-20T13:38:05.395Z,14.20
2022-10-20T13:40:51.501Z,14.20
2022-10-20T13:43:46.902Z,14.20
2022-10-20T13:46:20.539Z,14.20
2022-10-20T13:49:05.500Z,14.20
2022-10-20T13:51:52.713Z,14.30
2022-10-20T13:54:33.523Z,14.30
2022-10-20T13:57:00.692Z,14.30
2022-10-20T13:59:28.885Z,14.30
2022-10-20T14:02:01.337Z,14.40
2022-10-20T14:04:35.802Z,14.40
2022-10-20T14:07:03.938Z,14.40
2022-10-20T14:09:30.925Z,14.30
2022-10-20T14:12:05.701Z,14.30
2022-10-20T14:14:32.786Z,14.30
2022-10-20T14:17:05.064Z,14.30
2022-10-20T14:19:33.552Z,14.30
2022-10-20T14:22:18.118Z,14.30
2022-10-20T14:24:46.688Z,14.20
2022-10-20T14:27:28.228Z,14.20
2022-10-20T14:29:54.947Z,14.10
2022-10-20T14:32:23.371Z,14.10
2022-10-20T14:35:00.998Z,14.10
2022-10-20T14:37:40.066Z,14.10
2022-10-20T14:40:28.732Z,14.00
2022-10-20T14:43:16.333Z,14.10
2022-10-20T14:45:52.165Z,14.00
2022-10-20T14:48:19.149Z,13.90
2022-10-20T14:50:45.834Z,13.90
2022-10-20T14:53:25.499Z,13.90
2022-10-20T14:55:52.205Z,13.80
2022-10-20T14:58:38.085Z,13.80
2022-10-20T15:01:25.832Z,13.70
2022-10-20T15:04:05.212Z,13.70
2022-10-20T15:06:32.121Z,13.70
2022-10-20T15:08:59.842Z,13.50
2022-10-20T15:11:27.298Z,13.50
2022-10-20T15:13:55.353Z,13.50
2022-10-20T15:16:50.365Z,13.40
2022-10-20T15:19:35.741Z,13.40
2022-10-20T15:24:40.428Z,13.20
2022-10-20T15:27:09.645Z,13.20
2022-10-20T15:29:36.365Z,13.10
2022-10-20T15:32:03.122Z,13.10
2022-10-20T15:34:29.902Z,13.00
2022-10-20T15:36:56.625Z,13.00
2022-10-20T15:39:23.390Z,12.90
2022-10-20T15:41:53.054Z,12.90
2022-10-20T15:44:22.184Z,12.90
2022-10-20T15:46:50.727Z,12.80
2022-10-20T15:49:17.477Z,12.70
2022-10-20T15:51:45.314Z,12.70
2022-10-20T15:54:16.836Z,12.60
2022-10-20T15:56:43.888Z,12.60
2022-10-20T15:59:10.603Z,12.50
2022-10-20T16:01:37.407Z,12.50
2022-10-20T16:04:31.790Z,12.40
2022-10-20T16:07:02.608Z,12.40
2022-10-20T16:09:29.909Z,12.30
2022-10-20T16:11:56.618Z,12.30
2022-10-20T16:14:23.371Z,12.30
2022-10-20T16:16:50.279Z,12.20
2022-10-20T16:19:17.039Z,12.20
2022-10-20T16:21:43.829Z,12.20
2022-10-20T16:24:11.518Z,12.10
2022-10-20T16:26:38.267Z,12.20
2022-10-20T16:29:04.978Z,12.10
2022-10-20T16:31:31.701Z,12.10
2022-10-20T16:34:01.484Z,12.00
2022-10-20T16:36:28.331Z,12.00
2022-10-20T16:38:56.670Z,11.90
2022-10-20T16:41:23.468Z,11.90
2022-10-20T16:43:50.280Z,11.90
2022-10-20T16:46:17.204Z,12.00
2022-10-20T16:48:47.568Z,11.90
2022-10-20T16:51:15.622Z,11.90
2022-10-20T16:53:42.752Z,11.80
2022-10-20T16:56:15.382Z,11.80
2022-10-20T16:58:45.120Z,11.80
2022-10-20T17:01:12.705Z,11.80
2022-10-20T17:06:17.880Z,11.80
2022-10-20T17:08:44.849Z,11.80
2022-10-20T17:11:16.192Z,11.80
2022-10-20T17:13:43.110Z,11.80
2022-10-20T17:16:13.626Z,11.80
2022-10-20T17:18:40.492Z,11.70
2022-10-20T17:21:07.371Z,11.70
2022-10-20T17:23:37.441Z,11.70
2022-10-20T17:26:07.385Z,11.70
2022-10-20T17:28:35.690Z,11.60
2022-10-20T17:31:02.562Z,11.60
2022-10-20T17:33:30.231Z,11.60
2022-10-20T17:35:57.540Z,11.60
2022-10-20T17:38:24.686Z,11.50
2022-10-20T17:40:55.110Z,11.60
2022-10-20T17:43:22.049Z,11.50
2022-10-20T17:46:02.437Z,11.50
2022-10-20T17:48:30.635Z,11.50
2022-10-20T17:51:02.360Z,11.50
2022-10-20T17:53:31.338Z,11.40
2022-10-20T17:56:05.730Z,11.40
2022-10-20T17:58:33.908Z,11.40
2022-10-20T18:01:18.038Z,11.40
2022-10-20T18:03:45.629Z,11.30
2022-10-20T18:06:14.234Z,11.30
2022-10-20T18:08:41.080Z,11.30
2022-10-20T18:11:15.806Z,11.30
2022-10-20T18:13:42.678Z,11.30
2022-10-20T18:16:12.117Z,11.30
2022-10-20T18:18:39.514Z,11.20
2022-10-20T18:21:10.961Z,11.20
2022-10-20T18:23:38.024Z,11.20
2022-10-20T18:26:10.002Z,11.10
2022-10-20T18:28:39.535Z,11.10
2022-10-20T18:31:10.232Z,11.10
2022-10-20T18:33:37.061Z,11.20
2022-10-20T18:36:07.351Z,11.10
2022-10-20T18:38:38.710Z,11.10
2022-10-20T18:41:06.242Z,11.10
2022-10-20T18:43:33.249Z,11.20
2022-10-20T18:46:01.111Z,11.20
2022-10-20T18:48:28.068Z,11.20
2022-10-20T18:50:58.985Z,11.20
2022-10-20T18:53:26.391Z,11.20
2022-10-20T18:56:06.434Z,11.20
2022-10-20T18:58:35.212Z,11.20
2022-10-20T19:01:03.800Z,11.20
2022-10-20T19:03:31.388Z,11.20
2022-10-20T19:05:59.681Z,11.20
2022-10-20T19:08:26.617Z,11.20
2022-10-20T19:10:53.522Z,11.20
2022-10-20T19:13:20.481Z,11.30
2022-10-20T19:15:47.288Z,11.40
2022-10-20T19:18:14.003Z,11.40
2022-10-20T19:20:40.775Z,11.40
2022-10-20T19:23:07.532Z,11.50
2022-10-20T19:25:34.421Z,11.50
2022-10-20T19:28:01.173Z,11.50
2022-10-20T19:30:27.956Z,11.50
2022-10-20T19:32:54.974Z,11.50
2022-10-20T19:35:22.016Z,11.50
2022-10-20T19:37:48.855Z,11.50
2022-10-20T19:40:15.585Z,11.50
2022-10-20T19:42:42.342Z,11.40
2022-10-20T19:45:09.431Z,11.40
2022-10-20T19:47:36.367Z,11.20
2022-10-20T19:50:03.198Z,11.20
2022-10-20T19:52:30.196Z,11.10
2022-10-20T19:54:56.981Z,11.00
2022-10-20T19:57:23.771Z,11.00
2022-10-20T19:59:50.526Z,11.00
2022-10-20T20:02:17.468Z,11.00
2022-10-20T20:04:44.254Z,10.90
2022-10-20T20:07:11.058Z,10.90
2022-10-20T20:09:37.888Z,10.80
2022-10-20T20:12:04.585Z,10.80
2022-10-20T20:14:31.290Z,10.80
2022-10-20T20:16:58.198Z,10.80
2022-10-20T20:19:25.181Z,10.80
2022-10-20T20:21:52.187Z,10.70
2022-10-20T20:24:18.950Z,10.70
2022-10-20T20:26:47.006Z,10.70
2022-10-20T20:29:13.804Z,10.70
2022-10-20T20:31:40.537Z,10.60
2022-10-20T20:34:07.243Z,10.60
2022-10-20T20:36:34.333Z,10.60
2022-10-20T20:39:01.470Z,10.60
2022-10-20T20:41:30.248Z,10.60
2022-10-20T20:43:57.090Z,10.50
2022-10-20T20:46:24.632Z,10.50
2022-10-20T20:48:51.505Z,10.50
2022-10-20T20:51:18.452Z,10.40
2022-10-20T20:53:45.214Z,10.40
2022-10-20T20:56:15.234Z,10.40
2022-10-20T20:58:45.104Z,10.40
2022-10-20T21:01:13.339Z,10.30
2022-10-20T21:03:40.359Z,10.30
2022-10-20T21:06:11.997Z,10.30
2022-10-20T21:08:39.577Z,10.30
2022-10-20T21:11:17.180Z,10.30
2022-10-20T21:13:47.332Z,10.30
2022-10-20T21:16:23.989Z,10.30
2022-10-20T21:18:54.505Z,10.30
2022-10-20T21:21:33.814Z,10.20
2022-10-20T21:24:01.008Z,10.20
2022-10-20T21:26:28.299Z,10.20
2022-10-20T21:28:55.351Z,10.10
2022-10-20T21:31:23.221Z,10.10
2022-10-20T21:33:50.978Z,10.10
2022-10-20T21:36:18.371Z,10.10
2022-10-20T21:38:45.084Z,10.10
2022-10-20T21:41:14.068Z,10.10
2022-10-20T21:43:42.481Z,10.10
2022-10-20T21:46:19.462Z,10.10
2022-10-20T21:48:47.235Z,10.10
2022-10-20T21:51:28.186Z,10.10
2022-10-20T21:54:19.290Z,10.10
2022-10-20T21:56:54.100Z,10.10
2022-10-20T21:59:28.573Z,10.10
2022-10-20T22:01:58.215Z,10.00
2022-10-20T22:04:26.453Z,10.00
2022-10-20T22:06:53.349Z,10.00
2022-10-20T22:09:21.083Z,10.00
2022-10-20T22:11:55.056Z,10.00
2022-10-20T22:14:22.113Z,10.00
2022-10-20T22:16:48.969Z,10.00
2022-10-20T22:19:18.089Z,9.90
2022-10-20T22:21:45.944Z,9.90
2022-10-20T22:24:13.076Z,9.90
2022-10-20T22:26:40.060Z,9.90
2022-10-20T22:29:09.561Z,9.90
2022-10-20T22:31:37.011Z,9.90
2022-10-20T22:34:03.832Z,9.90
2022-10-20T22:36:30.670Z,9.80
2022-10-20T22:38:57.372Z,9.80
2022-10-20T22:41:24.187Z,9.80
2022-10-20T22:43:50.916Z,9.80
2022-10-20T22:46:17.706Z,9.70
2022-10-20T22:48:46.188Z,9.70
2022-10-20T22:51:13.118Z,9.70
2022-10-20T22:53:39.878Z,9.70
2022-10-20T22:56:08.442Z,9.70
2022-10-20T22:58:35.433Z,9.60
2022-10-20T23:01:09.894Z,9.60
2022-10-20T23:03:37.020Z,9.60
2022-10-20T23:06:17.842Z,9.60
2022-10-20T23:08:49.541Z,9.60
2022-10-20T23:11:16.705Z,9.60
2022-10-20T23:13:43.502Z,9.60
2022-10-20T23:16:10.657Z,9.60
2022-10-20T23:18:37.467Z,9.50
2022-10-20T23:21:04.492Z,9.50
2022-10-20T23:23:32.384Z,9.50
2022-10-20T23:26:02.211Z,9.50
2022-10-20T23:28:31.371Z,9.50
2022-10-20T23:31:09.288Z,9.50
2022-10-20T23:33:37.176Z,9.50
2022-10-20T23:36:04.127Z,9.50
2022-10-20T23:38:30.932Z,9.40
2022-10-20T23:40:57.705Z,9.40
2022-10-20T23:43:24.661Z,9.40
2022-10-20T23:45:51.410Z,9.40
2022-10-20T23:48:18.193Z,9.40
2022-10-20T23:50:44.972Z,9.40
2022-10-20T23:53:12.018Z,9.40
2022-10-20T23:55:38.827Z,9.40
2022-10-20T23:58:05.571Z,9.30
